Time;durP1;ratioP1;P1;durP2;ratioP2;P2;SDS_P1;SDS_P2;PMS_P1;PMS_P2;Temp;Humidity;BMP_temperature;BMP_pressure;BME280_temperature;BME280_humidity;BME280_pressure;Samples;Min_cycle;Max_cycle;Signal;HPM_P1;HPM_P2
2023/04/26 00:03:59;;;;;;;6.57;2.33;;;2.30;99.90;;;;;;8289827;28;20195;-67
2023/04/26 00:08:22;;;;;;;3.53;2.30;;;2.40;99.90;;;;;;8294240;28;20202;-67
2023/04/26 00:12:59;;;;;;;4.97;2.27;;;2.30;99.90;;;;;;8305825;28;20302;-67
2023/04/26 00:17:22;;;;;;;;;;;;;;;;;;;;;
2023/04/26 00:21:40;;;;;;;;;;;;;;;;;;;;;
2023/04/26 00:26:33;;;;;;;4.23;2.20;;;2.10;99.90;;;;;;8286469;28;20210;-70
2023/04/26 00:30:47;;;;;;;5.30;2.50;;;2.10;1.00;;;;;;8234323;28;20250;-68
2023/04/26 00:35:04;;;;;;;4.40;2.63;;;2.10;1.00;;;;;;8295285;28;20210;-66
2023/04/26 00:39:08;;;;;;;3.00;2.47;;;2.20;1.00;;;;;;8282749;28;20187;-67
2023/04/26 00:43:22;;;;;;;5.60;2.80;;;2.30;1.00;;;;;;8283850;28;20197;-68
2023/04/26 00:47:33;;;;;;;4.87;2.67;;;2.40;1.00;;;;;;8290914;28;20183;-67
2023/04/26 00:51:35;;;;;;;4.13;1.83;;;2.40;99.90;;;;;;8294529;28;20219;-66
2023/04/26 00:55:59;;;;;;;7.17;2.10;;;2.40;99.90;;;;;;8287244;28;20194;-67
2023/04/26 01:00:26;;;;;;;6.57;2.27;;;2.40;99.90;;;;;;8286230;28;20179;-67
2023/04/26 01:09:10;;;;;;;6.67;2.03;;;2.50;99.90;;;;;;8282793;28;20194;-67
2023/04/26 01:13:14;;;;;;;4.30;2.17;;;2.50;99.90;;;;;;8282149;28;20246;-68
2023/04/26 01:17:32;;;;;;;4.83;2.10;;;2.50;99.90;;;;;;8291571;28;20196;-68
2023/04/26 01:22:06;;;;;;;2.70;2.27;;;2.40;99.90;;;;;;8291624;28;20225;-68
2023/04/26 01:26:16;;;;;;;6.43;2.00;;;2.30;99.90;;;;;;8283665;28;20221;-69
2023/04/26 01:30:26;;;;;;;7.33;3.07;;;2.20;1.00;;;;;;8281779;28;20249;-68
2023/04/26 01:34:33;;;;;;;5.10;2.30;;;2.10;1.00;;;;;;8285114;28;20302;-67
2023/04/26 01:38:43;;;;;;;4.87;2.27;;;2.10;1.00;;;;;;8293038;28;20182;-68
2023/04/26 01:43:22;;;;;;;4.50;2.63;;;2.10;1.00;;;;;;8300882;28;20222;-68
2023/04/26 01:47:26;;;;;;;6.00;2.40;;;2.10;1.00;;;;;;8282999;28;20269;-67
2023/04/26 01:51:47;;;;;;;5.17;2.47;;;2.10;1.00;;;;;;8285605;28;20210;-68
2023/04/26 01:56:05;;;;;;;6.30;2.17;;;2.10;1.00;;;;;;8287869;28;20195;-69
2023/04/26 02:00:25;;;;;;;5.83;2.70;;;2.10;1.00;;;;;;8286269;28;20222;-69
2023/04/26 02:04:32;;;;;;;6.30;2.30;;;2.20;1.00;;;;;;8290545;28;20187;-69
2023/04/26 02:08:56;;;;;;;5.83;1.90;;;2.20;1.00;;;;;;8291186;28;20182;-68
2023/04/26 02:13:20;;;;;;;2.80;1.83;;;2.20;1.00;;;;;;8207736;28;20299;-67
2023/04/26 02:17:46;;;;;;;7.70;2.00;;;2.20;1.00;;;;;;8284331;28;20259;-67
2023/04/26 02:22:24;;;;;;;4.67;2.10;;;2.30;1.00;;;;;;8286999;28;20199;-67
2023/04/26 02:27:02;;;;;;;5.90;2.03;;;2.30;1.00;;;;;;8253271;28;20195;-68
2023/04/26 02:31:19;;;;;;;3.43;1.70;;;2.30;1.00;;;;;;8287716;28;20210;-71
2023/04/26 02:40:14;;;;;;;6.20;1.93;;;2.30;1.00;;;;;;8274333;28;20186;-67
2023/04/26 02:44:30;;;;;;;4.73;2.83;;;2.30;1.00;;;;;;8287581;28;20182;-69
2023/04/26 02:48:37;;;;;;;6.97;2.07;;;2.20;1.00;;;;;;8283568;28;20203;-68
2023/04/26 02:52:38;;;;;;;3.23;1.80;;;2.20;1.00;;;;;;8286188;28;20265;-67
2023/04/26 02:56:50;;;;;;;6.10;1.80;;;2.20;1.00;;;;;;8282415;28;20244;-67
2023/04/26 03:01:02;;;;;;;6.10;1.90;;;2.10;1.00;;;;;;8285109;28;20191;-67
2023/04/26 03:05:08;;;;;;;3.07;1.50;;;2.00;1.00;;;;;;8287843;28;20202;-68
2023/04/26 03:09:18;;;;;;;3.33;1.70;;;2.00;3.20;;;;;;8285297;28;20309;-68
2023/04/26 03:13:25;;;;;;;4.07;1.57;;;1.90;37.70;;;;;;8284075;28;20238;-66
2023/04/26 03:17:46;;;;;;;2.87;1.70;;;1.90;98.70;;;;;;8278799;28;20186;-67
2023/04/26 03:21:47;;;;;;;3.60;1.50;;;1.90;99.90;;;;;;8286264;28;20279;-67
2023/04/26 03:26:09;;;;;;;5.50;1.90;;;1.90;90.40;;;;;;8285189;28;20179;-66
2023/04/26 03:30:27;;;;;;;4.27;1.70;;;1.90;52.80;;;;;;8257356;28;20199;-67
2023/04/26 03:34:28;;;;;;;3.73;1.20;;;2.00;1.00;;;;;;8244631;28;20199;-67
2023/04/26 03:38:45;;;;;;;1.87;1.43;;;2.00;1.00;;;;;;8240140;28;20286;-67
2023/04/26 03:42:51;;;;;;;3.93;1.77;;;1.90;1.00;;;;;;8245789;28;20226;-67
2023/04/26 03:47:05;;;;;;;3.33;2.27;;;1.80;16.40;;;;;;8242685;28;20179;-67
2023/04/26 03:51:12;;;;;;;3.50;1.50;;;1.80;99.90;;;;;;8248222;28;20377;-68
2023/04/26 03:55:35;;;;;;;;;;;;;;;;;;;;;
2023/04/26 03:59:36;;;;;;;11.63;1.80;;;1.70;99.90;;;;;;8349599;22;20293;-67
2023/04/26 04:03:40;;;;;;;3.20;1.80;;;1.80;99.90;;;;;;8287941;28;20219;-68
2023/04/26 04:08:13;;;;;;;6.27;1.80;;;1.80;99.90;;;;;;8289444;28;20253;-66
2023/04/26 04:12:53;;;;;;;;;;;;;;;;;;;;;
2023/04/26 04:17:15;;;;;;;4.37;1.50;;;2.40;1.00;;;;;;8286428;28;20225;-67
2023/04/26 04:21:33;;;;;;;3.67;1.20;;;2.90;99.90;;;;;;8287785;28;20203;-68
2023/04/26 04:25:39;;;;;;;4.90;1.73;;;3.10;99.90;;;;;;8285177;28;20257;-68
2023/04/26 04:30:06;;;;;;;7.03;1.83;;;3.30;99.90;;;;;;8287149;28;20179;-66
2023/04/26 04:34:07;;;;;;;3.80;1.47;;;3.50;99.90;;;;;;8286213;28;20191;-68
2023/04/26 04:38:34;;;;;;;3.13;1.00;;;3.80;99.90;;;;;;8296520;28;20276;-68
2023/04/26 04:42:49;;;;;;;3.47;1.47;;;3.90;99.90;;;;;;8208543;28;20247;-68
2023/04/26 04:47:03;;;;;;;4.10;1.60;;;4.00;97.60;;;;;;8263275;28;20197;-68
2023/04/26 04:51:10;;;;;;;2.33;1.50;;;4.20;90.40;;;;;;8289920;28;20193;-67
2023/04/26 04:55:32;;;;;;;4.67;1.30;;;4.30;61.90;;;;;;8292554;28;20183;-68
2023/04/26 05:00:02;;;;;;;6.27;1.70;;;4.20;68.90;;;;;;8280883;28;20213;-67
2023/04/26 05:04:13;;;;;;;4.90;1.70;;;3.90;97.70;;;;;;8257394;28;20224;-69
2023/04/26 05:08:40;;;;;;;5.07;1.67;;;3.90;99.90;;;;;;8256033;28;20224;-67
2023/04/26 05:12:56;;;;;;;7.03;1.70;;;3.80;99.90;;;;;;8233609;28;20248;-68
2023/04/26 05:17:07;;;;;;;;;;;;;;;;;;;;;
2023/04/26 05:21:15;;;;;;;6.77;1.77;;;3.90;99.90;;;;;;8261182;28;20242;-68
2023/04/26 05:25:16;;;;;;;7.47;1.70;;;4.10;99.90;;;;;;8271274;28;20208;-67
2023/04/26 05:29:30;;;;;;;;;;;;;;;;;;;;;
2023/04/26 05:33:50;;;;;;;4.47;1.53;;;4.20;99.90;;;;;;8265388;28;20230;-67
2023/04/26 05:38:00;;;;;;;6.83;2.20;;;4.20;99.90;;;;;;8262484;28;20190;-67
2023/04/26 05:42:25;;;;;;;6.87;1.87;;;4.30;90.70;;;;;;8259792;28;20216;-68
2023/04/26 05:46:29;;;;;;;3.80;1.50;;;4.30;99.90;;;;;;8245827;28;20203;-69
2023/04/26 05:50:50;;;;;;;4.57;1.57;;;4.40;99.90;;;;;;8257662;28;20194;-68
2023/04/26 05:55:12;;;;;;;8.43;1.60;;;4.50;99.90;;;;;;8269734;28;20192;-70
2023/04/26 06:00:22;;;;;;;5.90;2.00;;;4.50;95.80;;;;;;8254107;28;20215;-69
2023/04/26 06:04:30;;;;;;;5.03;1.60;;;4.50;70.70;;;;;;8253841;28;20196;-68
2023/04/26 06:08:33;;;;;;;6.07;1.40;;;4.70;85.80;;;;;;8252575;28;20198;-69
2023/04/26 06:12:44;;;;;;;8.63;1.90;;;4.80;66.70;;;;;;8254509;28;20302;-70
2023/04/26 06:16:49;;;;;;;7.17;1.70;;;4.90;52.90;;;;;;8251881;28;20190;-69
2023/04/26 06:21:16;;;;;;;4.60;1.20;;;4.90;63.10;;;;;;8255775;28;20317;-69
2023/04/26 06:25:42;;;;;;;;;;;;;;;;;;;;;
2023/04/26 06:30:08;;;;;;;6.23;1.60;;;5.20;23.40;;;;;;8256025;28;20222;-68
2023/04/26 06:34:09;;;;;;;4.70;1.47;;;5.50;51.20;;;;;;8259208;28;20195;-67
2023/04/26 06:39:03;;;;;;;6.50;1.37;;;5.30;1.00;;;;;;8260057;28;20211;-67
2023/04/26 06:43:26;;;;;;;6.93;1.40;;;5.30;3.40;;;;;;8206319;28;20229;-68
2023/04/26 06:47:54;;;;;;;8.50;1.23;;;5.40;1.00;;;;;;8273844;28;20310;-67
2023/04/26 06:52:40;;;;;;;5.80;1.50;;;5.80;1.00;;;;;;8256861;28;20249;-70
2023/04/26 06:56:53;;;;;;;5.13;1.50;;;5.70;1.00;;;;;;8243855;28;20214;-68
2023/04/26 07:01:09;;;;;;;7.73;1.30;;;6.00;1.00;;;;;;8251124;28;20219;-67
2023/04/26 07:05:23;;;;;;;5.13;1.10;;;6.30;1.00;;;;;;8250208;28;20228;-69
2023/04/26 07:14:01;;;;;;;3.33;1.10;;;6.20;1.00;;;;;;8248220;28;20230;-72
2023/04/26 07:18:48;;;;;;;6.77;1.20;;;6.20;1.00;;;;;;8259967;28;20218;-71
2023/04/26 07:28:30;;;;;;;7.40;1.77;;;6.60;1.00;;;;;;8253659;28;20203;-72
2023/04/26 07:32:35;;;;;;;6.20;1.10;;;6.70;1.00;;;;;;8201201;28;20203;-71
2023/04/26 07:36:46;;;;;;;6.40;1.40;;;6.90;1.00;;;;;;8254254;28;20195;-71
2023/04/26 07:41:16;;;;;;;3.93;1.07;;;6.80;1.00;;;;;;8258585;28;20219;-71
2023/04/26 07:45:34;;;;;;;6.63;1.60;;;6.70;1.00;;;;;;8251219;28;20230;-71
2023/04/26 07:49:47;;;;;;;4.13;1.13;;;6.90;1.00;;;;;;8258506;28;20203;-70
2023/04/26 07:54:14;;;;;;;4.10;0.93;;;7.30;1.00;;;;;;8245999;28;20203;-72
2023/04/26 08:03:53;;;;;;;4.00;0.97;;;6.50;1.00;;;;;;8070452;29;20235;-73
2023/04/26 08:13:05;;;;;;;4.80;1.30;;;7.30;1.00;;;;;;8151661;28;20440;-65
2023/04/26 08:17:08;;;;;;;3.47;1.63;;;7.40;1.00;;;;;;8149800;28;20229;-68
2023/04/26 08:21:29;;;;;;;3.40;1.20;;;7.30;1.00;;;;;;8155036;28;20224;-67
2023/04/26 08:25:48;;;;;;;5.37;1.23;;;7.00;1.00;;;;;;8142615;28;20203;-68
2023/04/26 08:30:33;;;;;;;4.13;1.13;;;7.40;1.00;;;;;;8232103;28;20196;-68
2023/04/26 08:35:17;;;;;;;;;;;;;;;;;;;;;
2023/04/26 08:40:09;;;;;;;2.87;1.13;;;7.20;1.00;;;;;;8218092;28;20228;-71
2023/04/26 08:44:16;;;;;;;3.70;0.97;;;7.60;1.00;;;;;;8195017;28;20266;-70
2023/04/26 08:49:36;;;;;;;2.87;1.03;;;7.80;1.00;;;;;;8235491;28;20201;-74
2023/04/26 08:54:17;;;;;;;4.43;1.20;;;7.80;1.00;;;;;;8086252;29;20207;-70
2023/04/26 08:58:53;;;;;;;3.07;0.90;;;7.50;1.00;;;;;;8084264;29;20222;-70
2023/04/26 09:08:09;;;;;;;3.47;1.13;;;8.20;1.00;;;;;;8262671;28;20305;-71
2023/04/26 09:12:43;;;;;;;4.03;0.90;;;8.30;1.00;;;;;;8257164;28;20294;-71
2023/04/26 09:16:57;;;;;;;3.13;0.73;;;8.20;1.00;;;;;;8256255;28;20390;-71
2023/04/26 09:21:28;;;;;;;4.37;1.07;;;7.90;1.00;;;;;;8250319;28;20267;-71
2023/04/26 09:25:55;;;;;;;4.60;1.00;;;8.40;1.00;;;;;;8262290;28;20257;-70
2023/04/26 09:30:26;;;;;;;4.13;1.00;;;8.80;1.00;;;;;;8255580;28;20206;-71
2023/04/26 09:39:59;;;;;;;4.80;1.43;;;7.90;1.00;;;;;;8227585;28;20241;-72
2023/04/26 09:44:46;;;;;;;4.93;1.00;;;8.00;1.00;;;;;;8182392;28;20251;-69
2023/04/26 09:50:00;;;;;;;2.37;0.77;;;8.60;1.00;;;;;;8185214;28;20207;-71
2023/04/26 09:54:37;;;;;;;2.30;0.87;;;8.20;1.00;;;;;;8229705;28;20195;-70
2023/04/26 09:59:24;;;;;;;6.63;0.93;;;8.30;1.00;;;;;;8263207;28;20281;-71
2023/04/26 10:03:53;;;;;;;4.10;1.03;;;9.00;1.00;;;;;;8203223;28;20251;-72
2023/04/26 10:08:15;;;;;;;5.67;1.07;;;8.40;1.00;;;;;;8199780;28;20218;-72
2023/04/26 10:12:23;;;;;;;2.90;1.00;;;7.30;1.00;;;;;;8240509;28;20345;-72
2023/04/26 10:17:11;;;;;;;2.97;1.10;;;7.10;1.00;;;;;;8199940;28;20211;-70
2023/04/26 10:26:51;;;;;;;3.30;1.23;;;7.60;1.00;;;;;;8219865;28;20224;-70
2023/04/26 10:31:00;;;;;;;4.63;1.07;;;7.60;1.00;;;;;;8207989;28;20339;-71
2023/04/26 10:35:38;;;;;;;1.80;0.80;;;8.10;1.00;;;;;;8206321;28;20239;-69
2023/04/26 10:39:47;;;;;;;3.53;0.60;;;9.20;1.00;;;;;;8205468;28;20204;-70
2023/04/26 10:49:14;;;;;;;3.10;0.90;;;8.80;1.00;;;;;;8132275;29;20210;-71
2023/04/26 10:59:18;;;;;;;3.80;0.80;;;9.60;1.00;;;;;;8183940;28;20215;-71
2023/04/26 11:04:02;;;;;;;4.10;0.70;;;9.10;1.00;;;;;;8062026;29;20310;-71
2023/04/26 11:18:13;;;;;;;2.93;0.80;;;9.90;1.00;;;;;;8156039;28;20204;-67
2023/04/26 11:27:31;;;;;;;3.37;1.17;;;10.60;1.00;;;;;;8193470;28;20301;-67
2023/04/26 11:31:54;;;;;;;2.03;0.80;;;10.30;1.00;;;;;;8225285;28;20203;-68
2023/04/26 11:35:58;;;;;;;2.03;1.10;;;9.50;1.00;;;;;;8257879;28;20300;-69
2023/04/26 11:40:12;;;;;;;;;;;;;;;;;;;;;
2023/04/26 11:44:19;;;;;;;3.10;1.00;;;7.60;1.00;;;;;;8251826;28;20266;-68
2023/04/26 11:48:29;;;;;;;3.43;0.90;;;7.60;1.00;;;;;;8257297;28;20199;-70
2023/04/26 11:52:57;;;;;;;4.20;0.80;;;7.90;1.00;;;;;;8256497;28;20199;-70
2023/04/26 11:57:22;;;;;;;1.53;0.97;;;8.40;1.00;;;;;;8256285;28;20219;-70
2023/04/26 12:01:52;;;;;;;2.73;0.80;;;9.20;1.00;;;;;;8273865;28;20289;-69
2023/04/26 12:06:26;;;;;;;2.40;0.70;;;10.00;1.00;;;;;;8259919;28;20227;-71
2023/04/26 12:10:56;;;;;;;3.43;0.90;;;10.40;1.00;;;;;;8249151;28;20200;-70
2023/04/26 12:15:49;;;;;;;3.70;0.80;;;9.80;1.00;;;;;;8238569;28;20317;-70
2023/04/26 12:20:36;;;;;;;2.80;0.80;;;9.10;1.00;;;;;;8202237;28;20256;-72
2023/04/26 12:24:49;;;;;;;2.83;1.80;;;8.60;1.00;;;;;;8255509;28;20231;-71
2023/04/26 12:29:11;;;;;;;1.37;0.90;;;8.50;1.00;;;;;;8253490;28;20261;-71
2023/04/26 12:38:07;;;;;;;2.03;0.87;;;9.80;1.00;;;;;;8256065;28;20319;-70
2023/04/26 12:42:11;;;;;;;2.87;1.10;;;10.30;1.00;;;;;;8257658;28;20230;-71
2023/04/26 12:46:57;;;;;;;2.63;0.70;;;10.60;1.00;;;;;;8260504;28;20194;-71
2023/04/26 12:55:52;;;;;;;2.13;0.70;;;10.70;1.00;;;;;;8245474;28;20198;-70
2023/04/26 13:09:49;;;;;;;2.23;1.13;;;8.60;1.00;;;;;;8240851;28;20203;-71
2023/04/26 13:14:12;;;;;;;1.63;1.17;;;8.50;1.00;;;;;;8252169;28;20201;-69
2023/04/26 13:18:14;;;;;;;3.07;1.33;;;8.80;1.00;;;;;;8262414;28;20188;-69
2023/04/26 13:22:15;;;;;;;8.23;1.17;;;9.30;1.00;;;;;;8274691;28;20211;-71
2023/04/26 13:31:16;;;;;;;1.93;0.80;;;9.60;1.00;;;;;;8185659;28;20222;-67
2023/04/26 13:35:31;;;;;;;4.53;0.90;;;9.90;1.00;;;;;;8259853;28;20194;-65
2023/04/26 13:40:05;;;;;;;4.03;0.80;;;10.40;1.00;;;;;;8256878;28;20185;-68
2023/04/26 13:44:16;;;;;;;2.33;0.83;;;10.00;1.00;;;;;;8190883;28;20315;-66
2023/04/26 13:53:31;;;;;;;2.70;0.90;;;9.10;1.00;;;;;;8259345;28;20191;-70
2023/04/26 13:58:17;;;;;;;4.97;1.27;;;9.30;1.00;;;;;;8267928;28;20235;-70
2023/04/26 14:02:31;;;;;;;2.90;1.30;;;9.00;1.00;;;;;;8261000;28;20277;-70
2023/04/26 14:06:38;;;;;;;4.40;1.50;;;8.60;1.00;;;;;;8256246;28;20258;-72
2023/04/26 14:11:02;;;;;;;2.97;1.30;;;8.30;1.00;;;;;;8253402;28;20188;-71
2023/04/26 14:15:12;;;;;;;5.90;1.67;;;8.30;1.00;;;;;;8260125;28;20190;-70
2023/04/26 14:19:34;;;;;;;4.53;1.60;;;8.50;1.00;;;;;;8258219;28;20179;-70
2023/04/26 14:23:35;;;;;;;5.07;1.27;;;8.40;1.00;;;;;;8257129;28;20210;-71
2023/04/26 14:27:38;;;;;;;3.33;1.20;;;8.40;1.00;;;;;;8252423;28;20183;-70
2023/04/26 14:36:38;;;;;;;3.07;1.37;;;8.70;1.00;;;;;;8256051;28;20197;-70
2023/04/26 14:41:00;;;;;;;3.43;0.97;;;8.60;1.00;;;;;;8258841;28;20189;-71
2023/04/26 14:45:24;;;;;;;1.77;0.80;;;9.30;1.00;;;;;;8271815;28;20198;-71
2023/04/26 14:49:25;;;;;;;3.03;1.20;;;9.70;1.00;;;;;;8272962;28;20191;-69
2023/04/26 14:53:44;;;;;;;3.70;1.10;;;10.10;1.00;;;;;;8253667;28;20227;-67
2023/04/26 15:02:45;;;;;;;2.90;1.33;;;10.20;1.00;;;;;;8272495;28;20239;-68
2023/04/26 15:11:36;;;;;;;2.90;1.40;;;9.50;1.00;;;;;;8276814;28;20219;-71
2023/04/26 15:15:41;;;;;;;2.10;1.10;;;8.90;1.00;;;;;;8305489;28;20313;-70
2023/04/26 15:19:45;;;;;;;1.80;0.90;;;8.90;1.00;;;;;;8308688;28;20183;-69
2023/04/26 15:24:03;;;;;;;4.30;1.17;;;9.10;1.00;;;;;;8290969;28;20249;-69
2023/04/26 15:28:34;;;;;;;5.33;1.30;;;9.10;1.00;;;;;;8295866;28;20195;-69
2023/04/26 15:32:52;;;;;;;;;;;;;;;;;;;;;
2023/04/26 15:37:23;;;;;;;4.70;1.00;;;9.30;1.00;;;;;;8296134;28;20211;-70
2023/04/26 15:51:28;;;;;;;3.73;1.37;;;9.40;1.00;;;;;;8292712;28;20297;-70
2023/04/26 16:03:52;;;;;;;2.97;1.20;;;8.90;1.00;;;;;;8294606;28;20224;-69
2023/04/26 16:08:26;;;;;;;4.00;1.50;;;8.80;1.00;;;;;;8294497;28;20281;-70
2023/04/26 16:12:41;;;;;;;2.10;1.07;;;8.70;1.00;;;;;;8301759;28;20309;-70
2023/04/26 16:21:39;;;;;;;2.10;1.07;;;8.70;1.00;;;;;;8284046;28;20209;-70
2023/04/26 16:35:19;;;;;;;1.83;1.00;;;8.40;1.00;;;;;;8273003;28;20218;-70
2023/04/26 16:39:24;;;;;;;4.77;1.23;;;8.40;1.00;;;;;;8177945;28;20224;-70
2023/04/26 16:44:28;;;;;;;;;;;;;;;;;;;;;
2023/04/26 16:48:50;;;;;;;4.23;1.40;;;8.70;1.00;;;;;;8193205;28;20239;-70
2023/04/26 16:52:51;;;;;;;3.33;1.50;;;8.80;1.00;;;;;;8258473;28;20233;-71
2023/04/26 17:01:46;;;;;;;2.77;1.43;;;8.60;1.00;;;;;;8288159;28;20232;-69
2023/04/26 17:05:55;;;;;;;6.33;2.17;;;8.50;1.00;;;;;;8283949;28;20213;-70
2023/04/26 17:10:05;;;;;;;7.23;1.33;;;8.40;1.00;;;;;;8272096;28;20278;-69
2023/04/26 17:14:24;;;;;;;2.90;1.70;;;8.30;1.00;;;;;;8268975;28;20222;-68
2023/04/26 17:18:37;;;;;;;3.63;1.43;;;8.20;1.00;;;;;;8272762;28;20195;-67
2023/04/26 17:23:10;;;;;;;3.37;1.50;;;8.10;1.00;;;;;;8272947;28;20194;-66
2023/04/26 17:27:23;;;;;;;4.17;1.40;;;8.00;1.00;;;;;;8253021;28;20205;-66
2023/04/26 17:31:45;;;;;;;2.07;1.10;;;7.90;1.00;;;;;;8270407;28;20238;-67
2023/04/26 17:36:04;;;;;;;;;;;;;;;;;;;;;
2023/04/26 17:40:30;;;;;;;3.80;1.27;;;7.90;1.00;;;;;;8329797;28;20220;-67
2023/04/26 17:44:32;;;;;;;2.30;1.63;;;7.80;1.00;;;;;;8332871;28;20213;-67
2023/04/26 17:48:36;;;;;;;2.63;1.70;;;7.60;1.00;;;;;;8329292;28;20187;-65
2023/04/26 17:53:14;;;;;;;2.23;1.17;;;7.50;1.00;;;;;;8331381;28;20210;-66
2023/04/26 17:57:51;;;;;;;2.17;1.07;;;7.40;1.00;;;;;;8301045;28;20217;-66
2023/04/26 18:02:17;;;;;;;18.93;6.93;;;7.40;1.00;;;;;;8323217;28;20268;-66
2023/04/26 18:06:33;;;;;;;2.43;1.37;;;7.30;1.00;;;;;;8323429;28;20194;-65
2023/04/26 18:10:40;;;;;;;2.37;1.40;;;7.30;1.00;;;;;;8330969;28;20272;-68
2023/04/26 18:19:38;;;;;;;2.80;1.63;;;6.90;1.00;;;;;;8263981;28;20195;-68
2023/04/26 18:33:53;;;;;;;;;;;;;;;;;;;;;
2023/04/26 18:38:07;;;;;;;3.70;2.20;;;6.60;1.00;;;;;;8229232;28;20207;-66
2023/04/26 18:42:50;;;;;;;5.00;2.33;;;6.50;1.00;;;;;;8163833;28;20201;-68
2023/04/26 18:51:30;;;;;;;7.13;2.90;;;6.40;1.00;;;;;;8249229;28;20249;-65
2023/04/26 18:56:14;;;;;;;6.63;2.80;;;6.20;1.00;;;;;;8272755;28;20195;-65
2023/04/26 19:00:28;;;;;;;2.97;2.00;;;6.00;1.00;;;;;;8270706;28;20189;-67
2023/04/26 19:04:35;;;;;;;4.70;2.70;;;5.80;1.00;;;;;;8288323;28;20202;-66
2023/04/26 19:08:47;;;;;;;4.30;2.73;;;5.60;1.00;;;;;;8288874;28;20234;-66
2023/04/26 19:12:57;;;;;;;3.83;2.37;;;5.30;1.00;;;;;;8293641;28;20252;-66
2023/04/26 19:17:06;;;;;;;5.17;2.70;;;5.10;1.00;;;;;;8320160;28;20186;-66
2023/04/26 19:21:25;;;;;;;4.40;2.70;;;4.90;1.00;;;;;;8319454;28;20205;-65
2023/04/26 19:25:52;;;;;;;4.57;2.87;;;4.70;1.00;;;;;;8327716;28;20193;-66
2023/04/26 19:34:33;;;;;;;5.33;2.77;;;4.20;1.00;;;;;;8257050;28;20234;-69
2023/04/26 19:39:03;;;;;;;3.43;2.60;;;4.00;1.00;;;;;;8264520;28;20179;-70
2023/04/26 19:44:11;;;;;;;;;;;;;;;;;;;;;
2023/04/26 19:48:11;;;;;;;;;;;;;;;;;;;;;
2023/04/26 19:52:33;;;;;;;5.67;3.10;;;3.40;43.20;;;;;;8276584;28;20292;-65
2023/04/26 19:56:40;;;;;;;3.70;2.43;;;3.20;74.60;;;;;;8328635;28;20201;-67
2023/04/26 20:00:53;;;;;;;4.40;2.57;;;3.10;99.40;;;;;;8325920;28;20195;-67
2023/04/26 20:05:03;;;;;;;7.47;4.00;;;3.00;99.90;;;;;;8324143;28;20198;-70
2023/04/26 20:09:08;;;;;;;4.60;3.13;;;2.90;99.90;;;;;;8326648;28;20198;-64
2023/04/26 20:13:19;;;;;;;5.03;3.30;;;2.70;99.90;;;;;;8325033;28;20221;-66
2023/04/26 20:17:59;;;;;;;5.83;3.13;;;2.60;99.90;;;;;;8333340;28;20194;-67
2023/04/26 20:22:03;;;;;;;4.97;3.23;;;2.50;99.90;;;;;;8333785;28;20199;-66
2023/04/26 20:26:39;;;;;;;6.17;4.00;;;2.40;99.90;;;;;;8317805;28;20202;-67
2023/04/26 20:30:47;;;;;;;6.73;3.53;;;2.40;99.90;;;;;;8306415;28;20198;-65
2023/04/26 20:34:57;;;;;;;7.93;4.40;;;2.30;99.90;;;;;;8311436;28;20213;-66
2023/04/26 20:40:02;;;;;;;7.10;3.93;;;2.20;99.90;;;;;;8321858;28;20337;-66
2023/04/26 20:43:53;;;;;;;7.47;3.87;;;2.10;99.90;;;;;;8317228;28;20197;-67
2023/04/26 20:47:57;;;;;;;7.30;4.93;;;2.10;99.90;;;;;;8336141;28;20201;-66
2023/04/26 20:52:07;;;;;;;8.50;4.93;;;2.00;99.90;;;;;;8317934;28;20206;-66
2023/04/26 20:56:31;;;;;;;7.13;5.13;;;1.90;99.90;;;;;;8330745;28;20289;-66
2023/04/26 21:00:33;;;;;;;10.07;4.80;;;1.90;99.90;;;;;;8321273;28;20225;-67
2023/04/26 21:04:37;;;;;;;7.93;4.63;;;1.80;99.90;;;;;;8324176;28;20202;-67
2023/04/26 21:08:41;;;;;;;9.33;4.97;;;1.80;99.90;;;;;;8324204;28;20193;-66
2023/04/26 21:13:33;;;;;;;12.70;6.27;;;1.80;99.90;;;;;;8328118;28;20213;-67
2023/04/26 21:17:46;;;;;;;13.77;6.30;;;1.80;99.90;;;;;;8305328;28;20194;-66
2023/04/26 21:22:11;;;;;;;14.47;6.13;;;1.90;99.90;;;;;;8345318;28;20204;-66
2023/04/26 21:26:15;;;;;;;15.47;7.17;;;1.80;99.90;;;;;;8322329;28;20186;-66
2023/04/26 21:30:35;;;;;;;12.43;5.67;;;1.80;99.90;;;;;;8326105;28;20185;-66
2023/04/26 21:34:37;;;;;;;9.43;4.73;;;1.70;99.90;;;;;;8327871;28;20292;-66
2023/04/26 21:38:41;;;;;;;9.87;5.47;;;1.70;99.90;;;;;;8328093;28;20188;-66
2023/04/26 21:42:47;;;;;;;15.63;7.20;;;1.60;99.90;;;;;;8324883;28;20217;-66
2023/04/26 21:46:54;;;;;;;14.90;7.40;;;1.60;99.90;;;;;;8327692;28;20193;-66
2023/04/26 21:50:58;;;;;;;21.27;8.90;;;1.60;99.90;;;;;;8323984;28;20182;-66
2023/04/26 21:55:08;;;;;;;14.80;7.00;;;1.60;99.90;;;;;;8324150;28;20253;-66
2023/04/26 21:59:10;;;;;;;16.63;7.37;;;1.70;99.90;;;;;;8323637;28;20205;-66
2023/04/26 22:03:18;;;;;;;10.53;6.37;;;1.60;99.90;;;;;;8323614;28;20202;-66
2023/04/26 22:07:28;;;;;;;26.20;10.83;;;1.60;99.90;;;;;;8324018;28;20202;-66
2023/04/26 22:11:34;;;;;;;19.53;9.53;;;1.50;99.90;;;;;;8321395;28;20225;-65
2023/04/26 22:15:47;;;;;;;12.67;7.30;;;1.50;99.90;;;;;;8326934;28;20186;-66
2023/04/26 22:20:19;;;;;;;;;;;;;;;;;;;;;
2023/04/26 22:24:44;;;;;;;16.10;7.37;;;1.40;99.90;;;;;;8321319;28;20228;-66
2023/04/26 22:28:51;;;;;;;12.60;6.80;;;1.40;99.90;;;;;;8323706;28;20210;-67
2023/04/26 22:32:58;;;;;;;12.07;6.93;;;1.40;1.00;;;;;;8316644;28;20259;-66
2023/04/26 22:37:14;;;;;;;14.80;8.00;;;1.30;1.00;;;;;;8318992;28;20186;-64
2023/04/26 22:41:37;;;;;;;13.00;7.63;;;1.30;99.90;;;;;;8321275;28;20193;-66
2023/04/26 22:45:38;;;;;;;13.57;7.07;;;1.20;1.00;;;;;;8324192;28;20300;-65
2023/04/26 22:49:39;;;;;;;15.43;7.17;;;1.30;1.00;;;;;;8320757;28;20204;-66
2023/04/26 22:54:03;;;;;;;14.47;6.83;;;1.30;99.90;;;;;;8323635;28;20224;-67
2023/04/26 22:58:13;;;;;;;10.70;7.23;;;1.30;99.90;;;;;;8289531;28;20210;-66
2023/04/26 23:02:39;;;;;;;14.03;7.93;;;1.40;99.90;;;;;;8318389;28;20198;-67
2023/04/26 23:06:45;;;;;;;14.87;6.93;;;1.40;99.90;;;;;;8322716;28;20186;-66
2023/04/26 23:11:06;;;;;;;12.57;7.57;;;1.30;99.90;;;;;;8328835;28;20200;-66
2023/04/26 23:15:24;;;;;;;15.63;8.97;;;1.30;99.90;;;;;;8325944;28;20334;-66
2023/04/26 23:19:36;;;;;;;15.03;8.07;;;1.40;99.90;;;;;;8318809;28;20204;-66
2023/04/26 23:23:46;;;;;;;16.50;7.63;;;1.40;99.90;;;;;;8323796;28;20231;-67
2023/04/26 23:27:56;;;;;;;18.07;7.33;;;1.40;99.90;;;;;;8323102;28;20201;-67
2023/04/26 23:32:48;;;;;;;16.43;7.40;;;1.40;99.90;;;;;;8327686;28;20221;-67
2023/04/26 23:36:55;;;;;;;11.83;6.50;;;1.30;99.90;;;;;;8314686;28;20193;-66
2023/04/26 23:41:08;;;;;;;9.63;6.13;;;1.30;99.90;;;;;;8320842;28;20190;-67
2023/04/26 23:45:12;;;;;;;14.83;7.13;;;1.20;99.90;;;;;;8327774;28;20190;-67
2023/04/26 23:49:23;;;;;;;13.83;6.93;;;1.10;99.90;;;;;;8327816;28;20242;-66
2023/04/26 23:54:00;;;;;;;11.97;6.67;;;1.00;99.90;;;;;;8326539;28;20214;-65
2023/04/26 23:58:07;;;;;;;13.30;7.00;;;1.00;1.00;;;;;;8329170;28;20251;-66
